Time;durP1;ratioP1;P1;durP2;ratioP2;P2;SDS_P1;SDS_P2;PMS_P1;PMS_P2;Temp;Humidity;BMP_temperature;BMP_pressure;BME280_temperature;BME280_humidity;BME280_pressure;Samples;Min_cycle;Max_cycle;Signal;HPM_P1;HPM_P2
2021/04/19 00:00:52;;;;;;;64.15;36.55;;;;;;;4.30;83.72;98234.19;1785151;79;21043;-72
2021/04/19 00:03:19;;;;;;;63.17;33.18;;;;;;;4.29;83.75;98234.42;1785238;80;21130;-73
2021/04/19 00:05:46;;;;;;;54.35;33.65;;;;;;;4.29;83.46;98234.42;1785191;79;21022;-72
2021/04/19 00:08:12;;;;;;;54.33;28.07;;;;;;;4.33;82.83;98234.23;1784193;80;21501;-73
2021/04/19 00:10:38;;;;;;;62.48;32.48;;;;;;;4.32;82.04;98229.92;1780784;79;21590;-72
2021/04/19 00:13:05;;;;;;;58.98;31.60;;;;;;;4.19;83.07;98225.63;1780711;80;21658;-72
2021/04/19 00:15:31;;;;;;;47.25;27.17;;;;;;;4.23;83.21;98232.95;1780773;79;21146;-72
2021/04/19 00:17:57;;;;;;;54.05;28.12;;;;;;;4.24;82.40;98220.36;1780822;80;21099;-72
2021/04/19 00:20:23;;;;;;;48.15;29.35;;;;;;;4.15;82.33;98215.05;1780719;79;21183;-72
2021/04/19 00:22:50;;;;;;;50.40;28.47;;;;;;;4.06;84.67;98216.45;1780719;80;21523;-73
2021/04/19 00:25:16;;;;;;;49.23;26.87;;;;;;;4.12;84.21;98212.84;1780726;79;21142;-73
2021/04/19 00:27:42;;;;;;;46.77;25.72;;;;;;;4.16;83.06;98211.32;1780769;80;21138;-73
2021/04/19 00:30:10;;;;;;;51.20;28.92;;;;;;;4.11;82.76;98216.05;1780799;80;21095;-72
2021/04/19 00:32:36;;;;;;;54.93;29.18;;;;;;;4.04;83.03;98214.01;1780802;79;21190;-72
2021/04/19 00:35:05;;;;;;;48.70;27.27;;;;;;;4.00;83.55;98207.47;1780614;80;21047;-72
2021/04/19 00:37:32;;;;;;;53.30;30.00;;;;;;;4.00;82.65;98207.47;1780739;79;21067;-72
2021/04/19 00:39:58;;;;;;;50.90;26.97;;;;;;;4.01;82.76;98212.30;1762133;81;21100;-73
2021/04/19 00:42:24;;;;;;;50.78;28.30;;;;;;;3.95;82.78;98208.18;1762279;81;21410;-72
2021/04/19 00:44:50;;;;;;;53.60;29.40;;;;;;;3.98;82.53;98206.89;1762126;81;22144;-73
2021/04/19 00:47:16;;;;;;;47.25;27.73;;;;;;;3.99;83.67;98205.84;1780639;79;21138;-73
2021/04/19 00:49:42;;;;;;;47.88;27.60;;;;;;;4.04;83.39;98199.27;1762093;81;21032;-73
2021/04/19 00:52:09;;;;;;;53.52;28.90;;;;;;;4.07;83.38;98206.83;1762138;81;21076;-72
2021/04/19 00:54:36;;;;;;;53.85;29.82;;;;;;;4.11;83.16;98196.47;1756529;80;21118;-72
2021/04/19 00:57:02;;;;;;;48.15;27.05;;;;;;;4.17;83.44;98200.34;1736348;81;21198;-72
2021/04/19 00:59:28;;;;;;;55.73;29.60;;;;;;;4.22;83.03;98200.48;1762048;81;21132;-72
2021/04/19 01:01:54;;;;;;;47.10;27.73;;;;;;;4.21;83.26;98198.03;1780782;79;21444;-72
2021/04/19 01:04:20;;;;;;;48.65;28.75;;;;;;;4.21;83.76;98202.06;1762112;81;21064;-73
2021/04/19 01:06:47;;;;;;;51.77;28.90;;;;;;;4.22;83.28;98201.81;1756566;80;21083;-73
2021/04/19 01:09:13;;;;;;;52.30;28.35;;;;;;;4.19;83.68;98200.14;1736171;81;21208;-73
2021/04/19 01:11:39;;;;;;;48.92;27.40;;;;;;;4.22;83.22;98205.84;1762169;81;21112;-72
2021/04/19 01:14:05;;;;;;;53.75;29.85;;;;;;;4.21;83.04;98206.08;1762102;81;21132;-72
2021/04/19 01:16:31;;;;;;;52.45;29.50;;;;;;;4.16;82.76;98194.70;1780772;79;21043;-72
2021/04/19 01:18:57;;;;;;;47.15;27.17;;;;;;;4.14;83.05;98197.33;1762133;81;21100;-72
2021/04/19 01:21:24;;;;;;;52.17;30.20;;;;;;;4.08;82.40;98192.37;1762130;81;21204;-72
2021/04/19 01:23:50;;;;;;;45.83;26.77;;;;;;;4.01;83.56;98197.02;1762124;81;21510;-72
2021/04/19 01:26:16;;;;;;;45.50;26.20;;;;;;;4.02;83.24;98197.34;1762139;81;21143;-72
2021/04/19 01:28:42;;;;;;;49.58;27.73;;;;;;;4.06;82.72;98202.52;1780746;80;21019;-72
2021/04/19 01:31:08;;;;;;;49.45;28.10;;;;;;;3.99;83.15;98199.13;1762404;81;21096;-72
2021/04/19 01:33:35;;;;;;;48.80;27.50;;;;;;;4.00;83.50;98202.63;1780836;80;21196;-72
2021/04/19 01:36:01;;;;;;;45.63;26.50;;;;;;;4.03;83.16;98194.95;1762296;81;21422;-72
2021/04/19 01:38:27;;;;;;;49.53;27.40;;;;;;;4.06;83.00;98196.34;1762353;81;21151;-72
2021/04/19 01:40:56;;;;;;;44.48;25.00;;;;;;;4.03;83.01;98200.84;1780875;79;21028;-72
2021/04/19 01:43:23;;;;;;;46.45;25.20;;;;;;;4.00;83.16;98198.61;1762482;81;21120;-71
2021/04/19 01:45:50;;;;;;;44.98;26.73;;;;;;;3.91;82.95;98191.43;1780849;79;21275;-71
2021/04/19 01:48:21;;;;;;;48.52;27.10;;;;;;;3.89;83.09;98197.56;1762161;81;21147;-71
2021/04/19 01:50:49;;;;;;;49.98;26.80;;;;;;;3.83;83.06;98189.09;1780939;79;21043;-72
2021/04/19 01:53:16;;;;;;;52.03;28.92;;;;;;;3.80;82.69;98193.59;1762281;81;21132;-73
2021/04/19 01:55:42;;;;;;;49.93;27.65;;;;;;;3.76;82.64;98191.91;1780889;79;21043;-72
2021/04/19 01:58:14;;;;;;;50.33;27.40;;;;;;;3.74;84.09;98192.64;1762288;81;21454;-73
2021/04/19 02:00:43;;;;;;;47.62;27.48;;;;;;;3.81;84.61;98187.18;1780210;79;21436;-72
2021/04/19 02:03:41;;;;;;;49.03;27.13;;;;;;;3.89;84.06;98188.17;1736483;81;21096;-72
2021/04/19 02:06:32;;;;;;;47.13;26.73;;;;;;;3.90;83.97;98186.59;1781155;79;21098;-73
2021/04/19 02:09:23;;;;;;;50.23;26.90;;;;;;;3.94;83.80;98188.31;1761371;80;21430;-72
2021/04/19 02:12:06;;;;;;;46.95;25.90;;;;;;;3.95;83.79;98186.73;1749120;81;21163;-72
2021/04/19 02:15:08;;;;;;;51.45;28.35;;;;;;;4.02;84.06;98183.12;1759865;81;21046;-73
2021/04/19 02:17:58;;;;;;;50.90;28.12;;;;;;;4.03;84.10;98181.55;1759853;81;21041;-72
2021/04/19 02:20:37;;;;;;;47.15;27.58;;;;;;;4.04;84.22;98181.83;1759905;81;21433;-71
2021/04/19 02:23:37;;;;;;;45.23;26.93;;;;;;;4.03;83.94;98180.73;1759933;81;21490;-72
2021/04/19 02:26:13;;;;;;;40.03;21.97;;;;;;;4.01;83.56;98177.44;1759825;81;21149;-72
2021/04/19 02:28:51;;;;;;;49.90;27.07;;;;;;;3.97;82.67;98178.45;1759761;81;21112;-73
2021/04/19 02:31:18;;;;;;;51.23;29.25;;;;;;;3.84;84.16;98175.98;1759362;81;21116;-71
2021/04/19 02:33:45;;;;;;;47.50;26.33;;;;;;;3.84;84.26;98175.98;1759795;81;21092;-71
2021/04/19 02:36:12;;;;;;;49.48;25.50;;;;;;;3.85;83.26;98177.64;1759811;81;21061;-71
2021/04/19 02:38:40;;;;;;;50.12;26.57;;;;;;;3.82;83.13;98172.20;1759875;81;22040;-71
2021/04/19 02:41:09;;;;;;;51.90;27.73;;;;;;;3.78;83.05;98171.05;1759878;81;21509;-71
2021/04/19 02:43:38;;;;;;;50.00;27.17;;;;;;;3.73;83.69;98166.89;1759996;81;21133;-72
2021/04/19 02:46:04;;;;;;;43.73;24.05;;;;;;;3.78;83.79;98163.53;1759917;81;21033;-72
2021/04/19 02:48:30;;;;;;;60.20;28.92;;;;;;;3.83;83.38;98158.27;1759886;81;21112;-72
2021/04/19 02:50:56;;;;;;;49.45;27.40;;;;;;;3.85;83.40;98158.88;1759757;81;21187;-72
2021/04/19 02:53:22;;;;;;;48.55;26.73;;;;;;;3.83;83.34;98158.27;1759869;81;21517;-72
2021/04/19 02:55:48;;;;;;;49.90;30.30;;;;;;;3.86;84.12;98153.80;1759743;81;21080;-72
2021/04/19 02:58:18;;;;;;;49.15;28.47;;;;;;;3.88;84.56;98156.53;1734222;81;21143;-72
2021/04/19 03:00:47;;;;;;;63.25;30.45;;;;;;;3.94;84.18;98152.11;1759129;81;21022;-73
2021/04/19 03:03:26;;;;;;;;;;;;;;;3.91;84.39;98157.92;1762407;81;21105;-73
2021/04/19 03:05:53;;;;;;;;;;;;;;;3.86;85.10;98155.95;1749290;82;20352;-72
2021/04/19 03:08:19;;;;;;;53.28;26.00;;;;;;;3.85;84.00;98160.22;1747209;82;20252;-72
2021/04/19 03:10:56;;;;;;;50.60;25.60;;;;;;;3.79;83.22;98158.45;1737280;80;21070;-72
2021/04/19 03:13:22;;;;;;;54.63;28.67;;;;;;;3.70;83.20;98162.00;1735926;82;21059;-72
2021/04/19 03:15:49;;;;;;;48.80;25.97;;;;;;;3.69;84.34;98164.39;1735909;82;21210;-71
2021/04/19 03:18:16;;;;;;;49.20;25.43;;;;;;;3.68;83.53;98162.23;1735910;82;21129;-72
2021/04/19 03:21:12;;;;;;;47.13;24.75;;;;;;;3.66;84.42;98168.33;1735823;82;21063;-71
2021/04/19 03:23:45;;;;;;;46.55;27.98;;;;;;;3.65;83.87;98168.05;1735723;82;21125;-73
2021/04/19 03:26:13;;;;;;;56.75;32.00;;;;;;;3.67;84.28;98165.97;1735955;82;21054;-71
2021/04/19 03:28:39;;;;;;;43.28;24.32;;;;;;;3.68;85.76;98167.60;1735855;82;21496;-71
2021/04/19 03:31:07;;;;;;;50.55;28.12;;;;;;;3.79;84.76;98171.86;1735755;82;21195;-71
2021/04/19 03:33:36;;;;;;;56.53;31.62;;;;;;;3.76;85.11;98166.94;1717232;82;21086;-72
2021/04/19 03:36:02;;;;;;;47.07;26.80;;;;;;;3.77;84.87;98171.28;1736060;82;21046;-72
2021/04/19 03:38:28;;;;;;;51.28;31.02;;;;;;;3.81;85.21;98169.75;1735879;82;21142;-72
2021/04/19 03:40:55;;;;;;;53.30;28.95;;;;;;;3.81;85.46;98170.56;1735816;82;22142;-72
2021/04/19 03:43:22;;;;;;;53.28;31.23;;;;;;;3.85;85.04;98168.25;1735791;82;21153;-72
2021/04/19 03:45:50;;;;;;;46.45;25.85;;;;;;;3.81;85.95;98167.89;1735789;82;21086;-72
2021/04/19 03:48:20;;;;;;;45.45;25.72;;;;;;;3.81;84.11;98163.05;1735812;82;21094;-73
2021/04/19 03:50:54;;;;;;;47.48;25.90;;;;;;;3.77;84.03;98168.08;1735849;82;21051;-73
2021/04/19 03:53:20;;;;;;;44.18;25.52;;;;;;;3.71;84.81;98167.66;1735960;82;21197;-72
2021/04/19 03:55:47;;;;;;;46.55;26.25;;;;;;;3.73;84.57;98166.08;1735722;82;21046;-72
2021/04/19 03:58:14;;;;;;;46.53;29.75;;;;;;;3.75;85.40;98162.11;1735827;82;21094;-72
2021/04/19 04:00:40;;;;;;;54.67;31.07;;;;;;;3.85;85.10;98151.64;1735766;82;21189;-72
2021/04/19 04:03:06;;;;;;;46.60;27.20;;;;;;;3.95;85.45;98157.23;1735882;82;21102;-72
2021/04/19 04:05:32;;;;;;;51.98;29.37;;;;;;;4.01;85.76;98154.65;1735805;82;21270;-72
2021/04/19 04:07:58;;;;;;;49.42;27.35;;;;;;;4.04;85.49;98149.66;1735748;82;21110;-72
2021/04/19 04:10:25;;;;;;;48.10;31.33;;;;;;;4.09;84.79;98150.27;1742634;82;21409;-72
2021/04/19 04:12:51;;;;;;;48.25;27.37;;;;;;;4.12;84.92;98140.44;1747159;82;21137;-72
2021/04/19 04:15:18;;;;;;;48.55;26.60;;;;;;;4.14;85.03;98141.01;1747246;82;21086;-71
2021/04/19 04:17:45;;;;;;;51.15;30.90;;;;;;;4.13;84.29;98138.86;1747177;82;21260;-71
2021/04/19 04:20:12;;;;;;;58.55;30.80;;;;;;;4.11;84.91;98143.64;1747081;82;21439;-72
2021/04/19 04:22:39;;;;;;;82.10;44.20;;;;;;;4.14;84.66;98142.35;1747152;82;21126;-71
2021/04/19 04:25:07;;;;;;;82.02;45.55;;;;;;;4.18;84.16;98138.13;1747126;82;21158;-71
2021/04/19 04:27:33;;;;;;;66.05;35.90;;;;;;;4.25;84.30;98149.55;1747230;82;21043;-71
2021/04/19 04:29:59;;;;;;;57.33;29.20;;;;;;;4.33;85.00;98143.83;1747145;82;21201;-72
2021/04/19 04:32:25;;;;;;;52.53;28.15;;;;;;;4.32;83.99;98144.07;1747102;82;21602;-72
2021/04/19 04:34:51;;;;;;;47.38;27.25;;;;;;;4.24;84.70;98142.03;1747212;82;21420;-71
2021/04/19 04:37:17;;;;;;;43.48;25.30;;;;;;;4.27;84.18;98143.42;1747146;82;21101;-72
2021/04/19 04:39:43;;;;;;;42.03;25.57;;;;;;;4.27;84.06;98140.73;1747143;82;21019;-72
2021/04/19 04:42:14;;;;;;;43.50;24.12;;;;;;;4.32;84.05;98142.73;1747166;82;21498;-72
2021/04/19 04:44:42;;;;;;;40.15;23.87;;;;;;;4.29;84.04;98140.53;1747125;82;21043;-72
2021/04/19 04:47:32;;;;;;;45.25;22.73;;;;;;;4.29;84.07;98141.34;1747349;82;21130;-72
2021/04/19 04:50:19;;;;;;;41.13;25.15;;;;;;;4.32;84.12;98138.70;1747164;82;21106;-73
2021/04/19 04:52:57;;;;;;;46.83;26.65;;;;;;;4.33;84.50;98134.44;1747159;82;21522;-71
2021/04/19 04:55:23;;;;;;;57.98;31.33;;;;;;;4.35;84.08;98139.03;1747109;82;21206;-72
2021/04/19 04:57:50;;;;;;;60.55;37.10;;;;;;;4.32;85.30;98138.18;1723588;82;21134;-72
2021/04/19 05:00:18;;;;;;;65.37;40.65;;;;;;;4.31;85.98;98136.55;1747195;82;21103;-72
2021/04/19 05:02:49;;;;;;;76.75;47.85;;;;;;;4.38;84.41;98138.58;1747115;82;21111;-72
2021/04/19 05:05:16;;;;;;;100.82;59.93;;;;;;;4.37;84.49;98137.48;1747218;82;21430;-72
2021/04/19 05:07:43;;;;;;;108.63;60.58;;;;;;;4.42;84.40;98137.04;1747107;82;21200;-72
2021/04/19 05:10:10;;;;;;;92.17;51.73;;;;;;;4.50;83.95;98134.52;1750676;81;21105;-72
2021/04/19 05:12:41;;;;;;;95.90;54.05;;;;;;;4.49;84.26;98136.39;1757511;81;21180;-72
2021/04/19 05:15:12;;;;;;;84.95;47.90;;;;;;;4.51;84.76;98142.33;1788792;80;21082;-72
2021/04/19 05:17:37;;;;;;;66.97;40.35;;;;;;;4.58;84.20;98134.14;1788706;78;21098;-73
2021/04/19 05:20:05;;;;;;;57.83;33.58;;;;;;;4.69;84.33;98133.81;1788716;80;21324;-72
2021/04/19 05:22:31;;;;;;;50.12;30.65;;;;;;;4.76;84.32;98137.98;1788762;78;21413;-73
2021/04/19 05:24:58;;;;;;;47.40;31.35;;;;;;;4.80;83.96;98136.47;1788738;80;21101;-72
2021/04/19 05:27:24;;;;;;;52.13;33.55;;;;;;;4.76;84.12;98138.52;1788817;78;21032;-72
2021/04/19 05:29:50;;;;;;;60.23;35.38;;;;;;;4.78;84.59;98133.19;1788683;80;21015;-73
2021/04/19 05:32:18;;;;;;;63.75;39.10;;;;;;;4.84;84.22;98130.61;1788795;78;21393;-72
2021/04/19 05:34:44;;;;;;;65.95;41.28;;;;;;;4.85;83.88;98130.36;1788617;80;21055;-72
2021/04/19 05:37:10;;;;;;;68.07;43.28;;;;;;;4.88;83.96;98126.41;1788797;78;21416;-72
2021/04/19 05:39:36;;;;;;;60.67;37.60;;;;;;;4.87;84.28;98134.15;1788711;80;21146;-73
2021/04/19 05:42:04;;;;;;;48.17;28.38;;;;;;;4.87;84.56;98132.31;1788722;78;21015;-72
2021/04/19 05:44:31;;;;;;;56.85;32.70;;;;;;;4.90;83.62;98129.66;1788665;80;21100;-72
2021/04/19 05:46:57;;;;;;;44.70;26.80;;;;;;;4.87;84.50;98126.94;1788736;78;21519;-72
2021/04/19 05:49:23;;;;;;;45.33;27.67;;;;;;;4.91;84.24;98128.60;1788671;80;21194;-73
2021/04/19 05:51:49;;;;;;;44.93;27.42;;;;;;;4.92;84.08;98127.02;1788734;78;21096;-72
2021/04/19 05:54:17;;;;;;;47.15;28.55;;;;;;;4.91;83.97;98130.76;1788836;80;21134;-73
2021/04/19 05:56:54;;;;;;;52.50;33.48;;;;;;;4.91;83.84;98130.76;1764334;80;22101;-73
2021/04/19 05:59:57;;;;;;;48.40;28.17;;;;;;;4.89;84.40;98130.72;1787397;80;21154;-72
2021/04/19 06:02:57;;;;;;;52.75;29.80;;;;;;;4.95;84.44;98133.77;1788815;78;21031;-73
2021/04/19 06:05:32;;;;;;;47.75;28.52;;;;;;;5.00;85.15;98136.56;1788768;78;21431;-72
2021/04/19 06:08:18;;;;;;;53.90;32.65;;;;;;;5.04;84.16;98139.03;1788302;80;21110;-72
2021/04/19 06:10:54;;;;;;;66.20;38.38;;;;;;;4.98;84.47;98144.05;1784706;79;21181;-72
2021/04/19 06:13:20;;;;;;;68.20;41.48;;;;;;;5.07;84.75;98142.07;1780664;80;21099;-72
2021/04/19 06:15:47;;;;;;;61.13;35.05;;;;;;;5.12;84.66;98139.98;1780871;79;21062;-72
2021/04/19 06:18:14;;;;;;;60.00;35.33;;;;;;;5.12;83.97;98133.80;1780890;80;21500;-72
2021/04/19 06:20:40;;;;;;;52.75;31.10;;;;;;;5.08;83.68;98135.64;1780781;79;21525;-72
2021/04/19 06:23:06;;;;;;;52.00;31.12;;;;;;;5.06;83.73;98136.95;1780944;80;21503;-72
2021/04/19 06:25:32;;;;;;;58.10;31.80;;;;;;;5.04;83.86;98147.09;1780782;79;21063;-72
2021/04/19 06:28:06;;;;;;;46.53;26.27;;;;;;;5.03;83.96;98141.44;1780878;80;21114;-72
2021/04/19 06:30:40;;;;;;;52.25;30.60;;;;;;;5.06;84.17;98142.31;1762227;80;21069;-73
2021/04/19 06:33:01;;;;;;;43.92;26.23;;;;;;;5.08;85.07;98147.73;1780752;80;21115;-73
2021/04/19 06:35:28;;;;;;;49.50;30.60;;;;;;;5.18;84.51;98151.13;1762230;81;21458;-73
2021/04/19 06:37:55;;;;;;;51.05;30.80;;;;;;;5.13;84.21;98151.55;1780782;80;21150;-73
2021/04/19 06:40:22;;;;;;;47.98;29.75;;;;;;;5.13;84.57;98149.70;1762164;81;21032;-73
2021/04/19 06:42:48;;;;;;;57.58;29.63;;;;;;;5.17;84.39;98154.05;1780888;80;21107;-73
2021/04/19 06:45:15;;;;;;;54.60;34.05;;;;;;;5.23;84.22;98155.78;1762206;81;21044;-72
2021/04/19 06:47:42;;;;;;;55.50;32.45;;;;;;;5.24;85.05;98151.50;1780759;80;21143;-73
2021/04/19 06:50:10;;;;;;;54.98;33.92;;;;;;;5.31;85.10;98145.98;1762124;81;21116;-72
2021/04/19 06:52:36;;;;;;;50.40;29.80;;;;;;;5.40;85.06;98147.75;1756150;80;21150;-73
2021/04/19 06:55:05;;;;;;;49.08;29.15;;;;;;;5.50;84.95;98147.38;1762171;81;21160;-73
2021/04/19 06:57:35;;;;;;;42.48;24.87;;;;;;;5.59;85.38;98139.72;1762436;81;21419;-73
2021/04/19 07:00:04;;;;;;;53.92;31.57;;;;;;;5.63;84.54;98143.53;1780878;80;21241;-73
2021/04/19 07:02:32;;;;;;;48.50;30.48;;;;;;;5.62;84.45;98144.06;1762260;81;21032;-73
2021/04/19 07:04:58;;;;;;;47.25;27.02;;;;;;;5.67;84.71;98142.00;1780760;80;21074;-73
2021/04/19 07:07:39;;;;;;;48.08;31.12;;;;;;;5.74;84.30;98141.31;1762217;81;21029;-73
2021/04/19 07:10:06;;;;;;;48.20;30.82;;;;;;;5.77;84.05;98151.57;1780575;80;21130;-72
2021/04/19 07:12:33;;;;;;;54.75;34.75;;;;;;;5.82;84.01;98146.81;1785279;79;21194;-72
2021/04/19 07:15:02;;;;;;;41.83;26.68;;;;;;;5.87;84.04;98145.53;1785131;80;21102;-72
2021/04/19 07:17:28;;;;;;;50.50;31.35;;;;;;;5.87;83.82;98149.56;1757378;80;21106;-72
2021/04/19 07:19:54;;;;;;;53.08;37.58;;;;;;;5.87;83.86;98149.56;1785181;80;21138;-72
2021/04/19 07:22:21;;;;;;;52.33;35.75;;;;;;;5.91;84.15;98150.75;1785175;79;21059;-72
2021/04/19 07:24:47;;;;;;;54.33;32.65;;;;;;;5.97;83.90;98153.77;1785230;80;21515;-72
2021/04/19 07:27:13;;;;;;;56.08;31.75;;;;;;;6.05;83.99;98149.32;1785090;79;21018;-72
2021/04/19 07:29:41;;;;;;;45.98;29.55;;;;;;;6.08;84.25;98150.72;1785177;80;21130;-72
2021/04/19 07:32:07;;;;;;;56.28;34.00;;;;;;;6.14;83.86;98152.41;1785139;79;21123;-72
2021/04/19 07:34:34;;;;;;;49.70;31.12;;;;;;;6.19;83.87;98151.14;1785287;80;21492;-72
2021/04/19 07:37:06;;;;;;;53.25;33.40;;;;;;;6.28;84.06;98148.84;1785194;79;21186;-73
2021/04/19 07:39:37;;;;;;;61.63;35.55;;;;;;;6.33;83.89;98140.84;1785105;80;21087;-71
2021/04/19 07:42:09;;;;;;;57.67;34.20;;;;;;;6.44;83.90;98136.68;1785196;79;21070;-72
2021/04/19 07:44:43;;;;;;;57.23;35.15;;;;;;;6.50;83.58;98130.84;1785199;80;21103;-71
2021/04/19 07:47:39;;;;;;;69.10;42.58;;;;;;;6.57;83.51;98134.13;1785162;79;21075;-72
2021/04/19 07:50:20;;;;;;;64.05;39.95;;;;;;;6.67;83.60;98124.04;1785158;80;21515;-73
2021/04/19 07:53:02;;;;;;;65.97;40.67;;;;;;;6.75;83.40;98126.26;1785193;80;21138;-72
2021/04/19 07:55:36;;;;;;;68.80;39.95;;;;;;;6.78;83.24;98127.13;1785133;79;21066;-72
2021/04/19 07:58:05;;;;;;;74.42;44.30;;;;;;;6.76;83.19;98122.52;1756887;80;21075;-72
2021/04/19 08:00:37;;;;;;;64.72;39.03;;;;;;;6.71;82.50;98120.57;1782548;79;21047;-74
2021/04/19 08:03:15;;;;;;;57.33;37.33;;;;;;;6.62;83.06;98118.58;1785163;80;22063;-72
2021/04/19 08:05:48;;;;;;;67.10;41.95;;;;;;;6.48;82.51;98124.33;1785303;79;21032;-71
2021/04/19 08:08:16;;;;;;;75.17;43.98;;;;;;;6.40;82.78;98127.45;1785270;80;21471;-72
2021/04/19 08:10:46;;;;;;;77.43;48.03;;;;;;;6.35;83.51;98129.30;1783878;79;21134;-72
2021/04/19 08:13:13;;;;;;;;;;;;;;;6.38;83.33;98134.16;1780663;80;21350;-72
2021/04/19 08:15:42;;;;;;;70.30;43.83;;;;;;;6.46;83.70;98141.27;1777990;79;21302;-72
2021/04/19 08:18:11;;;;;;;65.62;40.12;;;;;;;6.55;83.69;98132.23;1778061;80;21087;-72
2021/04/19 08:20:38;;;;;;;60.30;39.05;;;;;;;6.68;83.90;98130.52;1778024;79;21608;-73
2021/04/19 08:23:07;;;;;;;93.37;42.38;;;;;;;6.74;83.89;98125.98;1753817;80;21060;-73
2021/04/19 08:25:39;;;;;;;75.90;43.28;;;;;;;6.78;83.42;98129.28;1778146;79;26919;-73
2021/04/19 08:28:20;;;;;;;85.92;47.75;;;;;;;6.79;83.51;98127.39;1728969;80;21150;-72
2021/04/19 08:30:49;;;;;;;70.15;42.55;;;;;;;6.90;83.47;98122.92;1777901;79;21185;-73
2021/04/19 08:33:15;;;;;;;78.60;51.95;;;;;;;6.86;83.70;98128.55;1777975;80;21134;-73
2021/04/19 08:35:43;;;;;;;65.95;41.35;;;;;;;6.83;84.11;98128.50;1778005;79;21028;-73
2021/04/19 08:38:09;;;;;;;77.85;46.63;;;;;;;6.85;83.51;98129.09;1778356;80;21484;-73
2021/04/19 08:40:38;;;;;;;73.90;48.33;;;;;;;6.79;83.48;98132.25;1778033;79;21189;-73
2021/04/19 08:43:22;;;;;;;70.67;42.90;;;;;;;6.77;83.87;98128.19;1778214;80;21123;-73
2021/04/19 08:45:48;;;;;;;58.17;38.00;;;;;;;6.79;83.43;98127.39;1777909;79;21499;-72
2021/04/19 08:48:14;;;;;;;60.80;39.90;;;;;;;6.74;84.56;98130.83;1778043;80;21621;-72
2021/04/19 08:50:46;;;;;;;61.42;36.65;;;;;;;6.71;84.47;98138.08;1777900;79;21182;-73
2021/04/19 08:53:14;;;;;;;114.20;60.12;;;;;;;6.64;85.12;98135.30;1778084;80;21260;-73
2021/04/19 08:55:42;;;;;;;62.40;37.93;;;;;;;6.71;85.30;98146.69;1777916;79;21178;-73
2021/04/19 08:58:09;;;;;;;71.62;41.63;;;;;;;6.77;84.45;98142.47;1753525;80;21103;-73
2021/04/19 09:00:39;;;;;;;58.85;37.15;;;;;;;6.85;84.27;98139.05;1777987;79;21098;-73
2021/04/19 09:03:07;;;;;;;58.08;34.05;;;;;;;6.91;84.52;98143.41;1777182;80;21141;-73
2021/04/19 09:05:33;;;;;;;61.42;40.58;;;;;;;6.96;84.10;98133.51;1777972;79;21985;-73
2021/04/19 09:08:08;;;;;;;56.60;35.48;;;;;;;7.07;84.18;98137.11;1777979;80;21138;-73
2021/04/19 09:10:55;;;;;;;53.28;36.68;;;;;;;7.22;84.23;98135.92;1777896;79;21083;-72
2021/04/19 09:13:42;;;;;;;52.30;35.08;;;;;;;7.30;83.92;98140.05;1777973;80;21067;-74
2021/04/19 09:16:22;;;;;;;57.67;38.02;;;;;;;7.36;83.87;98137.69;1777943;79;21015;-72
2021/04/19 09:18:59;;;;;;;55.20;35.55;;;;;;;7.40;83.48;98134.73;1777938;80;21184;-72
2021/04/19 09:21:47;;;;;;;62.10;36.70;;;;;;;7.50;83.46;98131.31;1777942;79;21142;-72
2021/04/19 09:24:14;;;;;;;57.93;37.95;;;;;;;7.57;83.29;98131.92;1777732;80;21086;-72
2021/04/19 09:26:55;;;;;;;136.70;47.95;;;;;;;7.75;83.20;98126.13;1778139;79;21082;-72
2021/04/19 09:29:41;;;;;;;67.32;44.40;;;;;;;7.92;82.82;98124.08;1777974;80;21488;-72
2021/04/19 09:32:08;;;;;;;80.12;50.70;;;;;;;8.10;82.56;98128.78;1777886;79;21119;-71
2021/04/19 09:34:54;;;;;;;74.20;46.25;;;;;;;8.26;82.47;98125.64;1777878;80;21113;-71
2021/04/19 09:37:25;;;;;;;83.03;52.88;;;;;;;8.36;82.35;98119.78;1777901;79;21031;-72
2021/04/19 09:40:00;;;;;;;115.97;59.35;;;;;;;8.35;82.20;98120.05;1747843;81;21100;-72
2021/04/19 09:43:02;;;;;;;158.78;91.65;;;;;;;8.45;82.53;98122.25;1759730;81;21129;-71
2021/04/19 09:45:48;;;;;;;81.05;44.00;;;;;;;8.46;82.45;98127.14;1759742;81;21400;-72
2021/04/19 09:48:33;;;;;;;56.80;31.95;;;;;;;8.45;82.55;98118.73;1759810;81;21092;-72
2021/04/19 09:51:03;;;;;;;50.80;29.82;;;;;;;8.61;82.21;98126.37;1759815;81;21514;-71
2021/04/19 09:53:32;;;;;;;923.50;155.30;;;;;;;8.69;82.01;98123.97;1734166;81;21532;-71
2021/04/19 09:55:58;;;;;;;552.60;108.70;;;;;;;8.91;81.64;98120.27;1759876;81;21124;-71
2021/04/19 09:58:25;;;;;;;239.97;60.23;;;;;;;9.11;81.56;98114.91;1759951;81;22100;-72
2021/04/19 10:00:58;;;;;;;49.93;25.90;;;;;;;9.28;81.38;98113.31;1759693;81;21064;-72
2021/04/19 10:03:24;;;;;;;94.95;36.73;;;;;;;9.31;80.06;98110.05;1759871;81;21060;-72
2021/04/19 10:05:51;;;;;;;67.65;31.75;;;;;;;9.17;80.66;98110.33;1759874;81;21433;-72
2021/04/19 10:08:18;;;;;;;76.82;29.92;;;;;;;9.17;80.66;98110.33;1759868;81;21128;-72
2021/04/19 10:10:55;;;;;;;53.83;27.02;;;;;;;9.20;80.36;98107.88;1759755;81;21200;-72
2021/04/19 10:13:37;;;;;;;114.20;36.95;;;;;;;9.23;79.72;98105.20;1736098;81;21517;-72
2021/04/19 10:16:10;;;;;;;41.80;28.05;;;;;;;9.33;80.19;98106.56;1759889;81;21061;-71
2021/04/19 10:18:40;;;;;;;36.70;24.85;;;;;;;9.45;79.68;98098.98;1759862;81;21100;-72
2021/04/19 10:21:07;;;;;;;47.93;28.23;;;;;;;9.52;79.36;98096.02;1759804;81;21536;-72
2021/04/19 10:23:40;;;;;;;42.17;26.97;;;;;;;9.57;79.23;98087.87;1759901;81;21199;-72
2021/04/19 10:26:06;;;;;;;54.45;26.10;;;;;;;9.71;79.20;98088.97;1759743;81;21139;-72
2021/04/19 10:28:40;;;;;;;29.63;18.37;;;;;;;9.84;79.18;98087.61;1759891;81;21156;-72
2021/04/19 10:31:19;;;;;;;27.20;19.20;;;;;;;9.88;78.49;98088.13;1759763;81;21129;-71
2021/04/19 10:33:49;;;;;;;32.20;18.80;;;;;;;9.78;77.72;98082.73;1760004;81;21092;-72
2021/04/19 10:36:24;;;;;;;38.30;25.25;;;;;;;9.75;75.99;98079.78;1758667;81;21871;-72
2021/04/19 10:38:56;;;;;;;42.58;22.80;;;;;;;9.77;77.41;98078.95;1759758;81;21056;-71
2021/04/19 10:41:33;;;;;;;27.40;16.95;;;;;;;9.87;77.96;98081.64;1759874;81;21156;-71
2021/04/19 10:43:59;;;;;;;29.77;18.73;;;;;;;9.89;77.52;98082.17;1759899;81;21076;-71
2021/04/19 10:46:30;;;;;;;22.62;15.85;;;;;;;9.64;76.63;98078.14;1759758;81;21167;-72
2021/04/19 10:48:57;;;;;;;32.67;19.30;;;;;;;9.64;76.63;98078.14;1759265;81;22108;-72
2021/04/19 10:51:25;;;;;;;29.63;18.60;;;;;;;9.44;76.39;98081.68;1759795;81;21369;-72
2021/04/19 10:53:53;;;;;;;28.98;20.68;;;;;;;9.25;77.08;98077.35;1759909;81;21498;-72
2021/04/19 10:56:21;;;;;;;31.55;23.90;;;;;;;9.29;77.70;98080.58;1734162;81;21119;-72
2021/04/19 10:58:49;;;;;;;27.00;19.02;;;;;;;9.41;77.70;98068.71;1759819;81;21112;-72
2021/04/19 11:01:31;;;;;;;25.27;18.07;;;;;;;9.37;77.39;98068.97;1759968;81;21258;-72
2021/04/19 11:03:58;;;;;;;20.08;14.33;;;;;;;9.37;77.50;98073.83;1731981;81;21092;-73
2021/04/19 11:06:24;;;;;;;22.82;14.35;;;;;;;9.33;77.89;98078.17;1759763;81;21052;-73
2021/04/19 11:09:03;;;;;;;18.80;12.90;;;;;;;9.28;77.92;98075.45;1759720;81;21140;-71
2021/04/19 11:11:38;;;;;;;43.50;23.75;;;;;;;9.35;78.03;98062.48;1759827;81;26808;-71
2021/04/19 11:14:20;;;;;;;34.92;22.40;;;;;;;9.50;78.38;98053.02;1759804;81;21271;-71
2021/04/19 11:17:07;;;;;;;24.72;17.70;;;;;;;9.66;77.43;98058.42;1759761;81;21526;-73
2021/04/19 11:19:43;;;;;;;34.20;18.95;;;;;;;9.61;76.88;98051.10;1759937;81;21481;-72
2021/04/19 11:22:34;;;;;;;21.40;14.75;;;;;;;9.61;76.88;98051.10;1759837;81;21533;-71
2021/04/19 11:25:16;;;;;;;23.65;13.90;;;;;;;9.40;76.91;98057.59;1759911;81;21454;-72
2021/04/19 11:27:43;;;;;;;65.83;30.32;;;;;;;9.29;77.89;98060.30;1759783;81;21152;-72
2021/04/19 11:30:27;;;;;;;56.77;30.57;;;;;;;9.30;78.31;98060.57;1759680;81;21113;-72
2021/04/19 11:33:10;;;;;;;32.13;18.98;;;;;;;9.33;78.55;98067.35;1759785;81;21045;-72
2021/04/19 11:35:39;;;;;;;16.32;12.68;;;;;;;9.35;78.68;98063.02;1759784;81;21084;-72
2021/04/19 11:38:09;;;;;;;30.23;25.92;;;;;;;9.14;77.05;98067.05;1759761;81;21187;-72
2021/04/19 11:40:40;;;;;;;24.82;18.05;;;;;;;8.99;77.34;98067.05;1759734;81;21190;-72
2021/04/19 11:43:22;;;;;;;22.35;16.75;;;;;;;8.91;78.04;98069.73;1759663;81;21545;-73